createdAt,value
2018-12-26T00:00:23.122Z,13.78
2018-12-26T00:01:26.819Z,15.70
2018-12-26T00:02:30.442Z,14.58
2018-12-26T00:03:34.094Z,15.05
2018-12-26T00:04:37.640Z,14.90
2018-12-26T00:05:41.331Z,12.55
2018-12-26T00:06:44.862Z,11.40
2018-12-26T00:07:48.445Z,11.57
2018-12-26T00:08:51.994Z,12.90
2018-12-26T00:09:55.538Z,12.60
2018-12-26T00:10:59.127Z,13.20
2018-12-26T00:12:02.671Z,13.13
2018-12-26T00:13:06.210Z,13.20
2018-12-26T00:14:09.757Z,13.00
2018-12-26T00:15:13.310Z,13.38
2018-12-26T00:16:16.907Z,12.58
2018-12-26T00:17:20.463Z,14.00
2018-12-26T00:18:24.113Z,12.35
2018-12-26T00:19:27.671Z,13.30
2018-12-26T00:20:31.198Z,13.85
2018-12-26T00:21:34.786Z,13.65
2018-12-26T00:22:38.325Z,11.85
2018-12-26T00:23:41.794Z,13.13
2018-12-26T00:24:45.266Z,13.65
2018-12-26T00:25:48.813Z,12.80
2018-12-26T00:26:52.314Z,11.85
2018-12-26T00:27:55.918Z,12.78
2018-12-26T00:28:59.462Z,11.70
2018-12-26T00:30:03.006Z,12.73
2018-12-26T00:31:06.553Z,14.05
2018-12-26T00:32:10.023Z,13.15
2018-12-26T00:33:13.617Z,10.08
2018-12-26T00:34:17.166Z,12.18
2018-12-26T00:35:20.719Z,11.48
2018-12-26T00:36:24.278Z,11.60
2018-12-26T00:37:27.829Z,11.85
2018-12-26T00:38:31.420Z,12.20
2018-12-26T00:39:34.972Z,11.65
2018-12-26T00:40:38.514Z,11.48
2018-12-26T00:41:42.054Z,11.95
2018-12-26T00:42:45.530Z,11.08
2018-12-26T00:43:49.215Z,10.55
2018-12-26T00:44:52.754Z,10.38
2018-12-26T00:45:56.302Z,10.70
2018-12-26T00:46:59.776Z,9.98
2018-12-26T00:48:03.318Z,11.12
2018-12-26T00:49:06.823Z,10.75
2018-12-26T00:50:10.367Z,9.35
2018-12-26T00:51:13.913Z,10.43
2018-12-26T00:52:17.499Z,11.50
2018-12-26T00:53:21.063Z,10.93
2018-12-26T00:54:24.605Z,10.90
2018-12-26T00:55:28.150Z,11.05
2018-12-26T00:56:31.694Z,12.40
2018-12-26T00:57:35.285Z,12.47
2018-12-26T00:58:38.831Z,11.65
2018-12-26T00:59:42.378Z,10.25
2018-12-26T01:00:45.934Z,10.88
2018-12-26T01:01:49.480Z,11.30
2018-12-26T01:02:53.061Z,10.53
2018-12-26T01:03:56.638Z,10.93
2018-12-26T01:05:00.167Z,12.75
2018-12-26T01:06:03.705Z,10.98
2018-12-26T01:07:07.226Z,11.83
2018-12-26T01:08:10.766Z,11.85
2018-12-26T01:09:14.319Z,11.10
2018-12-26T01:10:17.862Z,10.20
2018-12-26T01:11:21.330Z,10.70
2018-12-26T01:12:24.922Z,10.63
2018-12-26T01:13:28.465Z,13.25
2018-12-26T01:14:31.933Z,12.03
2018-12-26T01:15:35.402Z,13.10
2018-12-26T01:16:38.874Z,11.88
2018-12-26T01:17:42.463Z,11.48
2018-12-26T01:18:46.005Z,10.35
2018-12-26T01:19:49.475Z,10.70
2018-12-26T01:20:53.018Z,11.57
2018-12-26T01:21:56.487Z,10.90
2018-12-26T01:23:00.075Z,10.48
2018-12-26T01:24:03.626Z,10.75
2018-12-26T01:25:07.251Z,10.50
2018-12-26T01:26:18.947Z,10.98
2018-12-26T01:27:15.998Z,11.20
2018-12-26T01:28:19.569Z,10.45
2018-12-26T01:29:23.122Z,11.18
2018-12-26T01:30:26.594Z,11.73
2018-12-26T01:31:30.138Z,11.75
2018-12-26T01:32:33.692Z,10.58
2018-12-26T01:33:37.274Z,12.23
2018-12-26T01:34:40.821Z,11.03
2018-12-26T01:35:44.376Z,12.37
2018-12-26T01:36:47.918Z,11.60
2018-12-26T01:37:51.465Z,11.95
2018-12-26T01:38:54.982Z,11.25
2018-12-26T01:39:58.528Z,10.85
2018-12-26T01:41:02.078Z,10.70
2018-12-26T01:42:05.634Z,12.13
2018-12-26T01:43:09.173Z,11.18
2018-12-26T01:44:12.754Z,11.43
2018-12-26T01:45:16.302Z,11.68
2018-12-26T01:46:19.777Z,12.85
2018-12-26T01:47:23.322Z,12.70
2018-12-26T01:48:26.795Z,12.25
2018-12-26T01:49:30.382Z,11.83
2018-12-26T01:50:33.926Z,12.15
2018-12-26T01:51:37.471Z,11.78
2018-12-26T01:52:41.021Z,11.68
2018-12-26T01:53:44.562Z,10.75
2018-12-26T01:54:48.145Z,10.70
2018-12-26T01:55:51.689Z,12.05
2018-12-26T01:56:55.238Z,10.68
2018-12-26T01:57:58.783Z,10.90
2018-12-26T01:59:02.328Z,11.90
2018-12-26T02:00:07.561Z,10.32
2018-12-26T02:01:11.098Z,11.20
2018-12-26T02:02:14.566Z,11.85
2018-12-26T02:03:18.384Z,12.03
2018-12-26T02:04:21.926Z,11.57
2018-12-26T02:05:25.474Z,11.95
2018-12-26T02:06:29.019Z,10.28
2018-12-26T02:07:32.567Z,10.38
2018-12-26T02:08:36.158Z,10.65
2018-12-26T02:09:39.626Z,9.45
2018-12-26T02:10:43.179Z,10.75
2018-12-26T02:11:46.728Z,11.20
2018-12-26T02:12:50.269Z,10.10
2018-12-26T02:13:53.789Z,10.78
2018-12-26T02:14:57.338Z,11.95
2018-12-26T02:16:00.886Z,11.05
2018-12-26T02:17:04.431Z,11.85
2018-12-26T02:18:07.974Z,12.35
2018-12-26T02:19:11.558Z,11.95
2018-12-26T02:20:15.032Z,11.75
2018-12-26T02:21:18.682Z,11.70
2018-12-26T02:22:22.241Z,12.93
2018-12-26T02:23:25.858Z,11.38
2018-12-26T02:24:29.402Z,11.00
2018-12-26T02:25:33.222Z,10.58
2018-12-26T02:26:36.810Z,10.80
2018-12-26T02:27:40.355Z,10.93
2018-12-26T02:28:43.822Z,11.73
2018-12-26T02:29:47.303Z,10.32
2018-12-26T02:30:50.846Z,10.53
2018-12-26T02:31:54.357Z,11.18
2018-12-26T02:32:57.830Z,11.93
2018-12-26T02:34:01.311Z,11.08
2018-12-26T02:35:05.014Z,9.68
2018-12-26T02:36:08.555Z,10.70
2018-12-26T02:37:12.146Z,11.12
2018-12-26T02:38:15.693Z,11.43
2018-12-26T02:39:19.163Z,12.90
2018-12-26T02:40:22.711Z,11.40
2018-12-26T02:41:26.258Z,12.50
2018-12-26T02:42:29.850Z,12.20
2018-12-26T02:43:33.398Z,12.03
2018-12-26T02:44:36.872Z,12.07
2018-12-26T02:45:40.415Z,11.00
2018-12-26T02:46:43.959Z,10.90
2018-12-26T02:47:47.546Z,10.95
2018-12-26T02:48:51.018Z,11.68
2018-12-26T02:49:54.569Z,11.95
2018-12-26T02:50:58.255Z,11.93
2018-12-26T02:52:01.803Z,12.80
2018-12-26T02:53:05.389Z,12.30
2018-12-26T02:54:08.932Z,12.35
2018-12-26T02:55:12.480Z,11.97
2018-12-26T02:56:16.036Z,11.08
2018-12-26T02:57:19.574Z,12.20
2018-12-26T02:58:23.167Z,12.55
2018-12-26T02:59:26.711Z,11.65
2018-12-26T03:00:30.258Z,11.80
2018-12-26T03:01:33.802Z,11.25
2018-12-26T03:02:37.354Z,11.33
2018-12-26T03:03:41.318Z,11.80
2018-12-26T03:04:44.853Z,10.28
2018-12-26T03:05:48.398Z,12.65
2018-12-26T03:06:51.946Z,12.00
2018-12-26T03:07:55.486Z,10.30
2018-12-26T03:08:59.007Z,10.05
2018-12-26T03:10:02.549Z,9.03
2018-12-26T03:11:06.095Z,9.93
2018-12-26T03:12:09.561Z,9.95
2018-12-26T03:13:13.120Z,10.20
2018-12-26T03:14:16.710Z,10.18
2018-12-26T03:15:20.271Z,9.30
2018-12-26T03:16:23.892Z,11.00
2018-12-26T03:17:27.480Z,9.83
2018-12-26T03:18:31.024Z,10.05
2018-12-26T03:19:34.564Z,9.38
2018-12-26T03:20:38.166Z,10.25
2018-12-26T03:21:41.652Z,9.83
2018-12-26T03:22:45.335Z,9.45
2018-12-26T03:23:48.878Z,9.50
2018-12-26T03:24:52.471Z,9.48
2018-12-26T03:25:56.014Z,9.13
2018-12-26T03:26:59.565Z,10.15
2018-12-26T03:28:03.103Z,9.43
2018-12-26T03:29:06.648Z,9.93
2018-12-26T03:30:10.283Z,8.08
2018-12-26T03:31:13.836Z,8.75
2018-12-26T03:32:17.364Z,9.08
2018-12-26T03:33:20.909Z,9.40
2018-12-26T03:34:24.486Z,9.38
2018-12-26T03:35:28.027Z,7.85
2018-12-26T03:36:31.570Z,8.38
2018-12-26T03:37:35.110Z,9.10
2018-12-26T03:38:38.647Z,8.88
2018-12-26T03:39:42.294Z,9.60
2018-12-26T03:40:46.078Z,9.98
2018-12-26T03:41:49.650Z,8.48
2018-12-26T03:42:53.191Z,9.20
2018-12-26T03:43:56.862Z,8.93
2018-12-26T03:45:02.023Z,9.10
2018-12-26T03:46:06.707Z,8.20
2018-12-26T03:47:10.252Z,8.78
2018-12-26T03:48:15.174Z,10.03
2018-12-26T03:49:18.743Z,8.90
2018-12-26T03:50:22.390Z,8.70
2018-12-26T03:51:25.935Z,9.48
2018-12-26T03:52:29.550Z,10.05
2018-12-26T03:53:33.367Z,9.05
2018-12-26T03:54:36.906Z,8.60
2018-12-26T03:55:40.578Z,9.00
2018-12-26T03:56:44.109Z,8.63
2018-12-26T03:57:47.829Z,8.08
2018-12-26T03:58:51.362Z,7.75
2018-12-26T03:59:54.954Z,8.78
2018-12-26T04:00:58.635Z,8.53
2018-12-26T04:02:02.170Z,8.68
2018-12-26T04:03:05.714Z,8.93
2018-12-26T04:04:09.255Z,8.53
2018-12-26T04:05:12.847Z,10.13
2018-12-26T04:06:16.389Z,9.40
2018-12-26T04:07:19.998Z,8.50
2018-12-26T04:08:23.678Z,8.15
2018-12-26T04:09:27.221Z,8.40
2018-12-26T04:10:30.803Z,8.00
2018-12-26T04:11:34.390Z,8.45
2018-12-26T04:12:38.071Z,8.48
2018-12-26T04:13:41.610Z,7.50
2018-12-26T04:14:45.232Z,8.70
2018-12-26T04:15:49.013Z,8.40
2018-12-26T04:16:52.590Z,8.55
2018-12-26T04:17:56.131Z,8.90
2018-12-26T04:18:59.810Z,7.97
2018-12-26T04:20:03.484Z,8.35
2018-12-26T04:21:07.135Z,8.68
2018-12-26T04:22:10.747Z,8.53
2018-12-26T04:23:14.287Z,8.48
2018-12-26T04:24:17.907Z,7.87
2018-12-26T04:25:21.447Z,8.53
2018-12-26T04:26:25.030Z,8.00
2018-12-26T04:27:28.574Z,8.08
2018-12-26T04:28:32.120Z,8.10
2018-12-26T04:29:35.651Z,8.65
2018-12-26T04:30:39.227Z,9.00
2018-12-26T04:31:42.762Z,9.28
2018-12-26T04:32:46.282Z,8.20
2018-12-26T04:33:49.817Z,8.40
2018-12-26T04:34:53.365Z,8.38
2018-12-26T04:35:56.903Z,8.93
2018-12-26T04:37:00.443Z,8.13
2018-12-26T04:38:03.934Z,8.55
2018-12-26T04:39:07.483Z,8.73
2018-12-26T04:40:11.077Z,8.13
2018-12-26T04:41:14.614Z,8.05
2018-12-26T04:42:18.085Z,8.28
2018-12-26T04:43:21.617Z,7.28
2018-12-26T04:44:25.197Z,8.35
2018-12-26T04:45:28.746Z,8.03
2018-12-26T04:46:32.282Z,8.35
2018-12-26T04:47:35.821Z,8.63
2018-12-26T04:48:39.373Z,8.88
2018-12-26T04:49:42.942Z,8.05
2018-12-26T04:50:46.518Z,8.40
2018-12-26T04:51:50.127Z,7.75
2018-12-26T04:52:53.743Z,8.35
2018-12-26T04:53:57.324Z,9.65
2018-12-26T04:55:00.863Z,9.15
2018-12-26T04:56:04.397Z,8.45
2018-12-26T04:57:07.910Z,9.03
2018-12-26T04:58:11.447Z,9.45
2018-12-26T04:59:14.914Z,8.83
2018-12-26T05:00:18.491Z,9.18
2018-12-26T05:01:22.034Z,9.48
2018-12-26T05:02:25.721Z,9.68
2018-12-26T05:03:29.348Z,9.50
2018-12-26T05:04:32.891Z,9.43
2018-12-26T05:05:36.434Z,10.78
2018-12-26T05:06:39.977Z,9.40
2018-12-26T05:07:43.553Z,9.65
2018-12-26T05:08:47.095Z,9.80
2018-12-26T05:09:50.564Z,9.00
2018-12-26T05:10:54.153Z,10.55
2018-12-26T05:11:57.724Z,8.75
2018-12-26T05:13:01.299Z,8.35
2018-12-26T05:14:04.923Z,9.78
2018-12-26T05:15:08.464Z,9.60
2018-12-26T05:16:12.006Z,10.10
2018-12-26T05:17:15.546Z,9.30
2018-12-26T05:18:19.190Z,9.45
2018-12-26T05:19:22.739Z,9.53
2018-12-26T05:20:26.276Z,9.68
2018-12-26T05:21:29.818Z,9.60
2018-12-26T05:22:33.290Z,9.75
2018-12-26T05:23:36.875Z,10.35
2018-12-26T05:24:40.590Z,9.43
2018-12-26T05:25:44.127Z,10.05
2018-12-26T05:26:47.738Z,10.50
2018-12-26T05:27:51.328Z,9.18
2018-12-26T05:28:54.859Z,9.90
2018-12-26T05:29:58.443Z,9.78
2018-12-26T05:31:01.995Z,10.50
2018-12-26T05:32:05.534Z,9.83
2018-12-26T05:33:09.113Z,8.70
2018-12-26T05:34:12.654Z,10.10
2018-12-26T05:35:16.198Z,9.83
2018-12-26T05:36:19.742Z,10.18
2018-12-26T05:37:23.321Z,10.38
2018-12-26T05:38:26.862Z,10.43
2018-12-26T05:39:30.443Z,9.58
2018-12-26T05:40:33.998Z,10.10
2018-12-26T05:41:37.554Z,9.25
2018-12-26T05:42:41.099Z,9.28
2018-12-26T05:43:44.648Z,9.93
2018-12-26T05:44:48.230Z,9.30
2018-12-26T05:45:51.770Z,9.33
2018-12-26T05:46:55.310Z,9.90
2018-12-26T05:47:58.890Z,11.05
2018-12-26T05:49:02.474Z,10.60
2018-12-26T05:50:06.018Z,9.10
2018-12-26T05:51:09.569Z,10.70
2018-12-26T05:52:13.102Z,9.40
2018-12-26T05:53:16.575Z,9.78
2018-12-26T05:54:20.082Z,9.95
2018-12-26T05:55:23.627Z,9.23
2018-12-26T05:56:27.174Z,11.10
2018-12-26T05:57:30.678Z,10.13
2018-12-26T05:58:34.258Z,10.23
2018-12-26T05:59:37.732Z,9.90
2018-12-26T06:00:41.274Z,10.28
2018-12-26T06:01:44.857Z,11.03
2018-12-26T06:02:48.386Z,9.65
2018-12-26T06:03:51.967Z,9.35
2018-12-26T06:04:55.510Z,10.38
2018-12-26T06:05:59.060Z,10.68
2018-12-26T06:07:02.602Z,9.38
2018-12-26T06:08:06.410Z,9.63
2018-12-26T06:09:09.992Z,9.43
2018-12-26T06:10:13.652Z,10.45
2018-12-26T06:11:17.155Z,9.95
2018-12-26T06:12:20.708Z,10.75
2018-12-26T06:13:24.251Z,10.35
2018-12-26T06:14:27.797Z,10.15
2018-12-26T06:15:31.382Z,10.58
2018-12-26T06:16:34.851Z,11.53
2018-12-26T06:17:38.394Z,9.68
2018-12-26T06:18:41.934Z,9.00
2018-12-26T06:19:45.501Z,8.85
2018-12-26T06:20:48.974Z,9.45
2018-12-26T06:21:52.518Z,9.93
2018-12-26T06:22:56.062Z,9.75
2018-12-26T06:23:59.637Z,9.90
2018-12-26T06:25:03.192Z,9.60
2018-12-26T06:26:06.733Z,8.43
2018-12-26T06:27:10.274Z,9.40
2018-12-26T06:28:13.824Z,9.35
2018-12-26T06:29:17.414Z,10.28
2018-12-26T06:30:20.960Z,9.73
2018-12-26T06:31:24.498Z,9.33
2018-12-26T06:32:28.082Z,9.88
2018-12-26T06:33:31.622Z,9.43
2018-12-26T06:34:35.095Z,9.58
2018-12-26T06:35:38.636Z,9.80
2018-12-26T06:36:42.175Z,9.23
2018-12-26T06:37:45.753Z,9.90
2018-12-26T06:38:49.291Z,9.25
2018-12-26T06:39:52.841Z,10.15
2018-12-26T06:40:56.386Z,9.50
2018-12-26T06:41:59.966Z,8.75
2018-12-26T06:43:03.540Z,8.83
2018-12-26T06:44:07.082Z,9.50
2018-12-26T06:45:10.658Z,7.87
2018-12-26T06:46:14.123Z,9.10
2018-12-26T06:47:17.662Z,9.10
2018-12-26T06:48:21.169Z,8.90
2018-12-26T06:49:24.710Z,8.40
2018-12-26T06:50:28.255Z,8.83
2018-12-26T06:51:31.798Z,10.05
2018-12-26T06:52:35.262Z,9.93
2018-12-26T06:53:38.778Z,9.18
2018-12-26T06:54:42.375Z,9.58
2018-12-26T06:55:45.963Z,10.00
2018-12-26T06:56:49.505Z,9.13
2018-12-26T06:58:00.032Z,8.73
2018-12-26T06:58:58.234Z,8.08
2018-12-26T07:00:01.783Z,8.80
2018-12-26T07:01:05.362Z,9.00
2018-12-26T07:02:08.901Z,9.40
2018-12-26T07:03:12.450Z,9.35
2018-12-26T07:04:16.022Z,9.25
2018-12-26T07:05:19.569Z,9.30
2018-12-26T07:06:23.147Z,8.35
2018-12-26T07:07:26.698Z,9.75
2018-12-26T07:08:30.254Z,9.60
2018-12-26T07:09:33.798Z,8.98
2018-12-26T07:10:37.378Z,9.40
2018-12-26T07:11:40.919Z,8.83
2018-12-26T07:12:44.507Z,9.80
2018-12-26T07:13:48.090Z,9.30
2018-12-26T07:14:51.634Z,9.20
2018-12-26T07:15:55.178Z,9.40
2018-12-26T07:16:58.718Z,10.45
2018-12-26T07:18:02.272Z,9.95
2018-12-26T07:19:05.843Z,10.10
2018-12-26T07:20:09.386Z,9.95
2018-12-26T07:21:12.962Z,11.28
2018-12-26T07:22:16.508Z,10.58
2018-12-26T07:23:20.059Z,10.25
2018-12-26T07:24:23.602Z,9.20
2018-12-26T07:25:27.181Z,9.50
2018-12-26T07:26:30.704Z,9.80
2018-12-26T07:27:34.234Z,10.00
2018-12-26T07:28:37.778Z,10.15
2018-12-26T07:29:41.247Z,10.63
2018-12-26T07:30:44.796Z,10.55
2018-12-26T07:31:48.383Z,10.58
2018-12-26T07:32:51.931Z,9.98
2018-12-26T07:33:55.480Z,10.23
2018-12-26T07:34:59.022Z,11.33
2018-12-26T07:36:02.564Z,9.95
2018-12-26T07:37:06.147Z,10.50
2018-12-26T07:38:09.698Z,10.80
2018-12-26T07:39:13.246Z,10.80
2018-12-26T07:40:16.721Z,9.60
2018-12-26T07:41:20.267Z,9.33
2018-12-26T07:42:23.842Z,9.70
2018-12-26T07:43:27.306Z,9.60
2018-12-26T07:44:30.862Z,9.65
2018-12-26T07:45:34.415Z,10.75
2018-12-26T07:46:37.999Z,9.60
2018-12-26T07:47:41.538Z,9.43
2018-12-26T07:48:45.136Z,10.08
2018-12-26T07:49:48.667Z,9.98
2018-12-26T07:50:52.134Z,9.25
2018-12-26T07:51:55.691Z,10.23
2018-12-26T07:52:59.231Z,10.60
2018-12-26T07:54:02.909Z,10.95
2018-12-26T07:55:06.455Z,9.78
2018-12-26T07:56:09.999Z,10.60
2018-12-26T07:57:13.587Z,10.40
2018-12-26T07:58:17.727Z,10.55
2018-12-26T07:59:21.482Z,9.95
2018-12-26T08:00:25.039Z,10.58
2018-12-26T08:01:28.589Z,10.90
2018-12-26T08:02:32.174Z,11.18
2018-12-26T08:03:35.721Z,11.83
2018-12-26T08:04:39.266Z,12.25
2018-12-26T08:05:42.735Z,11.15
2018-12-26T08:06:46.282Z,11.35
2018-12-26T08:07:50.024Z,12.00
2018-12-26T08:08:53.566Z,12.20
2018-12-26T08:09:57.110Z,12.18
2018-12-26T08:11:00.654Z,13.00
2018-12-26T08:12:04.202Z,12.00
2018-12-26T08:13:07.787Z,11.83
2018-12-26T08:14:11.258Z,11.68
2018-12-26T08:15:14.834Z,11.45
2018-12-26T08:16:18.382Z,10.10
2018-12-26T08:17:21.932Z,10.05
2018-12-26T08:18:25.530Z,10.90
2018-12-26T08:19:29.078Z,10.23
2018-12-26T08:20:32.618Z,9.95
2018-12-26T08:21:36.193Z,11.33
2018-12-26T08:22:39.740Z,10.82
2018-12-26T08:23:43.287Z,10.80
2018-12-26T08:24:46.830Z,12.45
2018-12-26T08:25:50.298Z,10.15
2018-12-26T08:26:53.880Z,11.57
2018-12-26T08:27:57.426Z,11.35
2018-12-26T08:29:00.904Z,11.88
2018-12-26T08:30:04.781Z,11.73
2018-12-26T08:31:08.366Z,11.48
2018-12-26T08:32:11.834Z,11.00
2018-12-26T08:33:15.705Z,11.68
2018-12-26T08:34:19.246Z,10.85
2018-12-26T08:35:22.800Z,10.30
2018-12-26T08:36:26.341Z,12.33
2018-12-26T08:37:29.925Z,12.10
2018-12-26T08:38:33.471Z,11.08
2018-12-26T08:39:37.009Z,9.93
2018-12-26T08:40:40.554Z,10.55
2018-12-26T08:41:44.098Z,9.70
2018-12-26T08:42:47.682Z,10.38
2018-12-26T08:43:51.230Z,12.15
2018-12-26T08:44:54.706Z,11.53
2018-12-26T08:45:58.259Z,11.33
2018-12-26T08:47:01.802Z,11.33
2018-12-26T08:48:05.386Z,12.05
2018-12-26T08:49:08.862Z,12.18
2018-12-26T08:50:12.455Z,12.35
2018-12-26T08:51:15.993Z,12.60
2018-12-26T08:52:19.469Z,12.65
2018-12-26T08:53:23.012Z,11.90
2018-12-26T08:54:26.555Z,12.43
2018-12-26T08:55:30.139Z,11.95
2018-12-26T08:56:33.714Z,11.05
2018-12-26T08:57:37.275Z,13.30
2018-12-26T08:58:40.815Z,12.50
2018-12-26T08:59:44.894Z,12.28
2018-12-26T09:00:48.422Z,12.80
2018-12-26T09:01:51.997Z,13.03
2018-12-26T09:02:55.469Z,13.60
2018-12-26T09:03:59.016Z,12.20
2018-12-26T09:05:02.562Z,12.80
2018-12-26T09:06:06.146Z,12.45
2018-12-26T09:07:09.691Z,11.85
2018-12-26T09:08:13.239Z,11.73
2018-12-26T09:09:16.782Z,12.25
2018-12-26T09:10:20.254Z,11.40
2018-12-26T09:11:23.842Z,12.70
2018-12-26T09:12:27.318Z,14.63
2018-12-26T09:13:30.865Z,15.80
2018-12-26T09:14:34.402Z,12.55
2018-12-26T09:15:37.874Z,11.35
2018-12-26T09:16:41.386Z,12.30
2018-12-26T09:17:44.930Z,12.15
2018-12-26T09:18:48.474Z,12.75
2018-12-26T09:19:52.023Z,17.32
2018-12-26T09:20:55.572Z,16.40
2018-12-26T09:21:59.150Z,13.40
2018-12-26T09:23:02.701Z,13.65
2018-12-26T09:24:06.179Z,15.25
2018-12-26T09:25:09.767Z,13.00
2018-12-26T09:26:13.667Z,13.45
2018-12-26T09:27:17.249Z,13.80
2018-12-26T09:28:20.801Z,13.93
2018-12-26T09:29:24.357Z,13.50
2018-12-26T09:30:27.898Z,19.35
2018-12-26T09:31:31.484Z,16.80
2018-12-26T09:32:35.102Z,16.65
2018-12-26T09:33:38.647Z,15.15
2018-12-26T09:34:42.198Z,16.50
2018-12-26T09:35:45.691Z,14.58
2018-12-26T09:36:49.275Z,18.15
2018-12-26T09:37:52.826Z,13.78
2018-12-26T09:38:56.362Z,15.38
2018-12-26T09:39:59.874Z,15.48
2018-12-26T09:41:03.423Z,20.40
2018-12-26T09:42:07.068Z,21.60
2018-12-26T09:43:10.664Z,22.80
2018-12-26T09:44:14.391Z,22.15
2018-12-26T09:45:18.012Z,16.75
2018-12-26T09:46:21.696Z,17.57
2018-12-26T09:47:25.307Z,16.93
2018-12-26T09:48:30.762Z,17.50
2018-12-26T09:49:34.376Z,21.68
2018-12-26T09:50:38.017Z,16.65
2018-12-26T09:51:41.732Z,18.35
2018-12-26T09:52:45.344Z,15.03
2018-12-26T09:53:49.008Z,16.90
2018-12-26T09:54:52.631Z,16.00
2018-12-26T09:55:56.241Z,16.10
2018-12-26T09:57:00.002Z,18.65
2018-12-26T09:58:03.831Z,16.40
2018-12-26T09:59:07.436Z,17.55
2018-12-26T10:00:11.116Z,14.85
2018-12-26T10:01:14.724Z,18.65
2018-12-26T10:02:18.393Z,15.72
2018-12-26T10:03:22.085Z,16.57
2018-12-26T10:04:25.688Z,15.08
2018-12-26T10:05:29.298Z,16.40
2018-12-26T10:06:32.899Z,16.60
2018-12-26T10:07:37.117Z,14.43
2018-12-26T10:08:40.798Z,15.25
2018-12-26T10:09:44.710Z,13.95
2018-12-26T10:10:48.301Z,14.80
2018-12-26T10:11:51.848Z,15.78
2018-12-26T10:12:55.403Z,16.25
2018-12-26T10:13:58.950Z,20.35
2018-12-26T10:15:02.527Z,14.80
2018-12-26T10:16:06.080Z,16.50
2018-12-26T10:17:09.622Z,15.90
2018-12-26T10:18:13.186Z,16.65
2018-12-26T10:19:16.728Z,15.32
2018-12-26T10:20:20.309Z,17.70
2018-12-26T10:21:23.783Z,16.97
2018-12-26T10:22:27.326Z,16.07
2018-12-26T10:23:30.842Z,16.20
2018-12-26T10:24:34.387Z,17.52
2018-12-26T10:25:37.930Z,16.48
2018-12-26T10:26:41.470Z,17.02
2018-12-26T10:27:45.014Z,16.60
2018-12-26T10:28:48.975Z,16.45
2018-12-26T10:29:52.523Z,16.70
2018-12-26T10:30:56.077Z,16.10
2018-12-26T10:31:59.569Z,16.48
2018-12-26T10:33:03.039Z,16.70
2018-12-26T10:34:06.621Z,17.70
2018-12-26T10:35:10.171Z,18.20
2018-12-26T10:36:13.764Z,17.50
2018-12-26T10:37:17.310Z,16.85
2018-12-26T10:38:20.854Z,16.93
2018-12-26T10:39:24.331Z,18.32
2018-12-26T10:40:27.874Z,17.52
2018-12-26T10:41:31.380Z,17.70
2018-12-26T10:42:34.926Z,15.88
2018-12-26T10:43:38.507Z,16.12
2018-12-26T10:44:42.050Z,17.15
2018-12-26T10:45:45.598Z,16.57
2018-12-26T10:46:49.144Z,15.50
2018-12-26T10:47:52.742Z,15.32
2018-12-26T10:48:56.282Z,15.68
2018-12-26T10:49:59.829Z,15.60
2018-12-26T10:51:03.338Z,15.53
2018-12-26T10:52:06.882Z,16.10
2018-12-26T10:53:10.421Z,16.62
2018-12-26T10:54:13.890Z,15.88
2018-12-26T10:55:17.439Z,16.23
2018-12-26T10:56:21.028Z,16.00
2018-12-26T10:57:24.575Z,16.10
2018-12-26T10:58:28.118Z,16.42
2018-12-26T10:59:31.658Z,16.77
2018-12-26T11:00:35.298Z,16.50
2018-12-26T11:01:38.891Z,16.62
2018-12-26T11:02:42.434Z,16.55
2018-12-26T11:03:45.902Z,15.98
2018-12-26T11:04:49.446Z,17.55
2018-12-26T11:05:53.003Z,17.35
2018-12-26T11:06:56.582Z,17.82
2018-12-26T11:08:00.129Z,17.90
2018-12-26T11:09:06.334Z,16.12
2018-12-26T11:10:09.878Z,16.50
2018-12-26T11:11:13.470Z,16.17
2018-12-26T11:12:17.014Z,15.25
2018-12-26T11:13:20.498Z,18.80
2018-12-26T11:14:24.044Z,17.75
2018-12-26T11:15:27.592Z,17.82
2018-12-26T11:16:31.252Z,16.93
2018-12-26T11:17:35.173Z,18.02
2018-12-26T11:18:38.819Z,17.37
2018-12-26T11:19:42.550Z,17.17
2018-12-26T11:20:46.241Z,17.07
2018-12-26T11:21:49.885Z,16.30
2018-12-26T11:22:53.462Z,16.60
2018-12-26T11:23:57.024Z,17.50
2018-12-26T11:25:00.570Z,17.65
2018-12-26T11:26:04.087Z,17.30
2018-12-26T11:27:07.688Z,16.50
2018-12-26T11:28:11.218Z,18.37
2018-12-26T11:29:18.480Z,18.60
2018-12-26T11:30:19.970Z,18.40
2018-12-26T11:31:23.521Z,18.70
2018-12-26T11:32:27.100Z,18.80
2018-12-26T11:33:30.785Z,18.92
2018-12-26T11:34:34.325Z,19.40
2018-12-26T11:35:37.838Z,20.32
2018-12-26T11:36:41.454Z,18.30
2018-12-26T11:37:45.079Z,18.12
2018-12-26T11:38:48.698Z,20.08
2018-12-26T11:39:52.166Z,19.95
2018-12-26T11:40:55.739Z,19.40
2018-12-26T11:41:59.359Z,20.30
2018-12-26T11:43:02.902Z,18.82
2018-12-26T11:44:06.490Z,18.87
2018-12-26T11:45:10.029Z,17.62
2018-12-26T11:46:13.589Z,18.75
2018-12-26T11:47:17.130Z,17.75
2018-12-26T11:48:20.648Z,18.70
2018-12-26T11:49:24.200Z,20.05
2018-12-26T11:50:27.738Z,18.98
2018-12-26T11:51:31.314Z,17.45
2018-12-26T11:52:34.858Z,17.95
2018-12-26T11:53:38.530Z,18.32
2018-12-26T11:54:42.074Z,17.98
2018-12-26T11:55:46.003Z,18.07
2018-12-26T11:56:49.551Z,18.57
2018-12-26T11:57:53.101Z,17.20
2018-12-26T11:58:56.691Z,17.45
2018-12-26T12:00:00.236Z,16.60
2018-12-26T12:01:03.775Z,17.82
2018-12-26T12:02:07.242Z,18.65
2018-12-26T12:03:12.326Z,18.07
2018-12-26T12:04:15.906Z,17.85
2018-12-26T12:05:19.516Z,17.27
2018-12-26T12:06:23.057Z,16.30
2018-12-26T12:07:26.593Z,16.95
2018-12-26T12:08:30.170Z,17.60
2018-12-26T12:09:33.714Z,17.70
2018-12-26T12:10:37.301Z,16.60
2018-12-26T12:11:40.774Z,15.95
2018-12-26T12:12:44.324Z,18.15
2018-12-26T12:13:47.937Z,17.07
2018-12-26T12:14:51.559Z,16.82
2018-12-26T12:15:55.213Z,17.42
2018-12-26T12:16:58.681Z,18.32
2018-12-26T12:18:02.226Z,16.87
2018-12-26T12:19:05.766Z,17.17
2018-12-26T12:20:10.353Z,18.12
2018-12-26T12:21:13.866Z,19.37
2018-12-26T12:22:17.410Z,21.65
2018-12-26T12:23:20.890Z,22.50
2018-12-26T12:24:24.433Z,36.13
2018-12-26T12:25:27.991Z,22.73
2018-12-26T12:26:31.572Z,38.00
2018-12-26T12:27:35.114Z,29.02
2018-12-26T12:28:38.666Z,25.30
2018-12-26T12:29:42.212Z,20.75
2018-12-26T12:30:45.763Z,18.45
2018-12-26T12:31:49.354Z,21.33
2018-12-26T12:32:52.910Z,18.95
2018-12-26T12:33:56.377Z,18.75
2018-12-26T12:34:59.921Z,17.32
2018-12-26T12:36:03.572Z,19.02
2018-12-26T12:37:07.132Z,17.10
2018-12-26T12:38:10.673Z,16.27
2018-12-26T12:39:14.241Z,15.90
2018-12-26T12:40:17.778Z,13.60
2018-12-26T12:41:21.318Z,14.28
2018-12-26T12:42:24.927Z,15.25
2018-12-26T12:43:28.466Z,13.90
2018-12-26T12:44:32.351Z,15.80
2018-12-26T12:45:35.830Z,15.10
2018-12-26T12:46:39.452Z,13.98
2018-12-26T12:47:43.039Z,16.05
2018-12-26T12:48:46.585Z,15.40
2018-12-26T12:49:50.053Z,14.83
2018-12-26T12:50:53.602Z,13.15
2018-12-26T12:51:57.150Z,13.20
2018-12-26T12:53:00.818Z,15.63
2018-12-26T12:54:04.365Z,16.10
2018-12-26T12:55:07.914Z,16.05
2018-12-26T12:56:12.158Z,15.70
2018-12-26T12:57:15.911Z,17.05
2018-12-26T12:58:19.498Z,16.70
2018-12-26T12:59:23.050Z,17.73
2018-12-26T13:00:26.519Z,18.23
2018-12-26T13:01:29.989Z,18.30
2018-12-26T13:02:33.541Z,18.30
2018-12-26T13:03:37.127Z,15.90
2018-12-26T13:04:40.674Z,16.80
2018-12-26T13:05:44.218Z,16.52
2018-12-26T13:06:47.686Z,17.20
2018-12-26T13:07:51.154Z,16.62
2018-12-26T13:08:54.742Z,16.65
2018-12-26T13:09:58.307Z,17.02
2018-12-26T13:11:01.859Z,15.90
2018-12-26T13:12:05.405Z,17.82
2018-12-26T13:13:08.950Z,18.00
2018-12-26T13:14:12.598Z,18.48
2018-12-26T13:15:16.184Z,18.92
2018-12-26T13:16:19.726Z,16.93
2018-12-26T13:17:23.196Z,16.57
2018-12-26T13:18:26.746Z,16.45
2018-12-26T13:19:31.154Z,16.40
2018-12-26T13:20:34.774Z,16.15
2018-12-26T13:21:38.241Z,15.88
2018-12-26T13:22:41.786Z,17.25
2018-12-26T13:23:45.330Z,15.75
2018-12-26T13:24:48.806Z,18.12
2018-12-26T13:25:52.399Z,16.52
2018-12-26T13:26:55.951Z,16.67
2018-12-26T13:27:59.496Z,18.00
2018-12-26T13:29:03.037Z,17.00
2018-12-26T13:30:09.296Z,17.30
2018-12-26T13:31:12.884Z,17.25
2018-12-26T13:32:16.454Z,15.15
2018-12-26T13:33:20.005Z,15.03
2018-12-26T13:34:23.543Z,15.58
2018-12-26T13:35:27.103Z,17.30
2018-12-26T13:36:30.674Z,16.65
2018-12-26T13:37:42.553Z,16.77
2018-12-26T13:38:46.207Z,15.80
2018-12-26T13:39:49.756Z,16.10
2018-12-26T13:40:53.300Z,16.23
2018-12-26T13:41:56.874Z,16.48
2018-12-26T13:43:00.423Z,16.25
2018-12-26T13:44:03.970Z,17.20
2018-12-26T13:45:07.790Z,17.42
2018-12-26T13:46:11.367Z,16.82